KTBN

Waynesville-St Robert Regional Forney Field Airport

Fort Leonard Wood, Missouri, USA
METAR KTBN 220256Z 01006KT 10SM CLR 18/12 A3022 RMK SLP229 52022
Observed Flight Rules
Sep-22 @ 02:56 UTC (4 hours ago) Visual Flight Rules
Wind Visibility Clouds
10° at 6 knots 10 miles
Temperatures Readings
Current 18°C / 64°F
Dewpoint 12°C / 54°F
Humidity 68%
Altimeter 30.22" Hg
Pressure 1022.9 hPa
Elevation 353
METAR KTBN 220256Z 01006KT 10SM CLR 18/12 A3022 RMK SLP229 52022
Observed Flight Rules
Sep-22 @ 02:56 UTC
(4 hours ago)
VFR
Wind Visibility
10° at 6 knots 10 miles
Clouds
Temperature Dewpoint
18°C / 64°F 12°C / 54°F
Humidity Altimeter Pressure
68% 30.22" Hg 1022.9 hPa